createdAt,value
2019-04-27T00:01:05.212Z,2.93
2019-04-27T00:03:46.079Z,3.03
2019-04-27T00:06:15.946Z,3.00
2019-04-27T00:08:47.721Z,2.50
2019-04-27T00:11:37.390Z,2.90
2019-04-27T00:14:04.894Z,2.90
2019-04-27T00:16:57.183Z,2.97
2019-04-27T00:19:51.188Z,3.03
2019-04-27T00:22:33.344Z,2.73
2019-04-27T00:25:03.483Z,3.30
2019-04-27T00:27:35.487Z,3.37
2019-04-27T00:30:06.353Z,3.43
2019-04-27T00:32:35.509Z,3.50
2019-04-27T00:35:04.738Z,4.00
2019-04-27T00:37:48.956Z,4.90
2019-04-27T00:40:25.614Z,4.30
2019-04-27T00:42:54.744Z,4.13
2019-04-27T00:45:23.860Z,4.17
2019-04-27T00:47:57.397Z,5.10
2019-04-27T00:50:24.287Z,4.87
2019-04-27T00:52:53.386Z,4.37
2019-04-27T00:55:23.439Z,3.87
2019-04-27T00:58:04.380Z,4.40
2019-04-27T01:00:51.375Z,4.17
2019-04-27T01:03:25.775Z,4.37
2019-04-27T01:05:54.928Z,4.13
2019-04-27T01:08:24.064Z,4.00
2019-04-27T01:10:53.741Z,4.50
2019-04-27T01:13:23.090Z,4.00
2019-04-27T01:15:52.134Z,4.80
2019-04-27T01:18:21.221Z,4.47
2019-04-27T01:20:50.279Z,3.97
2019-04-27T01:23:19.410Z,4.20
2019-04-27T01:26:10.520Z,4.17
2019-04-27T01:28:49.009Z,4.30
2019-04-27T01:31:19.322Z,4.47
2019-04-27T01:33:48.912Z,4.50
2019-04-27T01:36:19.045Z,3.73
2019-04-27T01:38:49.673Z,4.53
2019-04-27T01:41:19.273Z,4.03
2019-04-27T01:43:49.023Z,4.43
2019-04-27T01:46:19.558Z,4.43
2019-04-27T01:48:49.087Z,4.53
2019-04-27T01:51:20.801Z,4.10
2019-04-27T01:53:50.121Z,3.77
2019-04-27T01:56:19.586Z,4.17
2019-04-27T01:58:49.429Z,3.93
2019-04-27T02:01:35.944Z,4.13
2019-04-27T02:04:15.337Z,4.63
2019-04-27T02:06:45.916Z,4.60
2019-04-27T02:09:16.088Z,4.90
2019-04-27T02:11:45.177Z,4.07
2019-04-27T02:14:15.643Z,4.10
2019-04-27T02:16:44.632Z,4.80
2019-04-27T02:19:13.732Z,3.80
2019-04-27T02:21:42.832Z,4.23
2019-04-27T02:24:11.877Z,4.00
2019-04-27T02:26:40.956Z,4.00
2019-04-27T02:29:39.040Z,5.10
2019-04-27T02:32:33.255Z,3.77
2019-04-27T02:35:09.177Z,3.47
2019-04-27T02:37:40.337Z,3.30
2019-04-27T02:41:01.947Z,3.27
2019-04-27T02:44:05.199Z,3.50
2019-04-27T02:46:34.326Z,3.23
2019-04-27T02:49:06.940Z,2.77
2019-04-27T02:51:49.406Z,2.90
2019-04-27T02:54:20.317Z,3.17
2019-04-27T02:56:50.040Z,3.43
2019-04-27T02:59:20.002Z,3.63
2019-04-27T03:02:06.363Z,3.43
2019-04-27T03:04:35.546Z,3.30
2019-04-27T03:07:04.629Z,3.50
2019-04-27T03:09:33.703Z,3.90
2019-04-27T03:12:04.151Z,3.93
2019-04-27T03:14:59.696Z,3.60
2019-04-27T03:17:59.576Z,3.80
2019-04-27T03:20:46.917Z,4.10
2019-04-27T03:23:16.236Z,3.83
2019-04-27T03:26:03.030Z,3.80
2019-04-27T03:28:32.121Z,3.20
2019-04-27T03:31:02.522Z,3.40
2019-04-27T03:33:32.910Z,2.87
2019-04-27T03:36:03.056Z,2.90
2019-04-27T03:38:32.273Z,2.97
2019-04-27T03:41:01.341Z,3.13
2019-04-27T03:43:30.831Z,2.87
2019-04-27T03:46:00.611Z,3.40
2019-04-27T03:48:29.795Z,3.13
2019-04-27T03:51:09.713Z,3.03
2019-04-27T03:53:57.210Z,3.13
2019-04-27T03:56:30.447Z,3.60
2019-04-27T03:59:03.564Z,3.07
2019-04-27T04:01:32.586Z,3.87
2019-04-27T04:04:02.746Z,3.03
2019-04-27T04:06:31.912Z,3.10
2019-04-27T04:09:00.984Z,2.90
2019-04-27T04:11:40.132Z,2.87
2019-04-27T04:14:13.775Z,2.53
2019-04-27T04:16:49.718Z,3.10
2019-04-27T04:19:19.755Z,3.17
2019-04-27T04:21:50.371Z,3.13
2019-04-27T04:24:20.849Z,2.90
2019-04-27T04:26:50.522Z,3.10
2019-04-27T04:29:20.430Z,2.87
2019-04-27T04:31:50.361Z,2.53
2019-04-27T04:34:20.088Z,2.97
2019-04-27T04:36:50.372Z,2.47
2019-04-27T04:39:19.959Z,3.40
2019-04-27T04:42:01.609Z,3.10
2019-04-27T04:44:50.210Z,3.00
2019-04-27T04:47:41.319Z,3.10
2019-04-27T04:50:14.643Z,2.77
2019-04-27T04:52:42.471Z,3.60
2019-04-27T04:55:11.725Z,2.83
2019-04-27T04:57:40.818Z,3.00
2019-04-27T05:00:10.088Z,3.00
2019-04-27T05:02:39.784Z,3.10
2019-04-27T05:05:09.492Z,3.13
2019-04-27T05:07:38.848Z,2.90
2019-04-27T05:10:09.034Z,2.67
2019-04-27T05:12:38.771Z,2.57
2019-04-27T05:15:09.130Z,3.20
2019-04-27T05:17:39.883Z,2.83
2019-04-27T05:20:30.235Z,2.93
2019-04-27T05:23:00.512Z,2.10
2019-04-27T05:25:29.656Z,2.40
2019-04-27T05:27:59.648Z,2.40
2019-04-27T05:30:28.918Z,2.63
2019-04-27T05:32:58.579Z,2.03
2019-04-27T05:35:27.744Z,2.33
2019-04-27T05:38:00.954Z,2.23
2019-04-27T05:40:31.027Z,2.03
2019-04-27T05:43:01.100Z,2.27
2019-04-27T05:46:09.863Z,1.93
2019-04-27T05:48:38.972Z,2.10
2019-04-27T05:51:09.183Z,2.20
2019-04-27T05:53:39.540Z,2.10
2019-04-27T05:56:09.369Z,2.20
2019-04-27T05:58:39.219Z,1.90
2019-04-27T06:01:10.875Z,1.70
2019-04-27T06:03:39.675Z,2.00
2019-04-27T06:06:09.704Z,2.23
2019-04-27T06:08:39.399Z,2.20
2019-04-27T06:11:09.418Z,1.80
2019-04-27T06:13:39.186Z,2.20
2019-04-27T06:16:09.493Z,1.77
2019-04-27T06:18:39.175Z,2.63
2019-04-27T06:21:09.747Z,2.67
2019-04-27T06:23:39.183Z,2.80
2019-04-27T06:26:09.164Z,2.77
2019-04-27T06:28:39.779Z,2.53
2019-04-27T06:31:08.958Z,3.13
2019-04-27T06:33:39.191Z,2.97
2019-04-27T06:36:10.061Z,3.20
2019-04-27T06:38:39.486Z,3.37
2019-04-27T06:41:10.099Z,2.90
2019-04-27T06:43:40.592Z,3.40
2019-04-27T06:46:11.213Z,2.40
2019-04-27T06:48:40.269Z,2.70
2019-04-27T06:51:09.784Z,2.53
2019-04-27T06:53:39.454Z,2.63
2019-04-27T06:56:09.037Z,2.90
2019-04-27T06:58:40.538Z,3.10
2019-04-27T07:01:10.773Z,2.67
2019-04-27T07:03:39.826Z,2.77
2019-04-27T07:06:09.015Z,3.10
2019-04-27T07:08:40.083Z,3.70
2019-04-27T07:11:11.552Z,3.40
2019-04-27T07:13:39.924Z,3.30
2019-04-27T07:16:09.605Z,3.27
2019-04-27T07:18:39.689Z,4.10
2019-04-27T07:21:16.984Z,3.33
2019-04-27T07:23:59.059Z,2.87
2019-04-27T07:26:30.231Z,3.13
2019-04-27T07:28:59.834Z,2.93
2019-04-27T07:31:29.515Z,3.20
2019-04-27T07:33:59.772Z,2.73
2019-04-27T07:36:29.123Z,2.90
2019-04-27T07:38:59.834Z,2.70
2019-04-27T07:41:29.293Z,2.60
2019-04-27T07:44:23.025Z,2.90
2019-04-27T07:47:09.812Z,2.83
2019-04-27T07:49:39.149Z,2.60
2019-04-27T07:52:08.770Z,3.20
2019-04-27T07:54:40.969Z,2.53
2019-04-27T07:57:09.927Z,2.37
2019-04-27T07:59:41.673Z,2.40
2019-04-27T08:02:11.027Z,2.13
2019-04-27T08:04:41.530Z,11.73
2019-04-27T08:07:10.585Z,3.77
2019-04-27T08:09:39.901Z,3.00
2019-04-27T08:12:10.821Z,2.97
2019-04-27T08:14:39.910Z,2.83
2019-04-27T08:17:09.752Z,2.97
2019-04-27T08:19:39.469Z,4.37
2019-04-27T08:22:09.581Z,2.73
2019-04-27T08:24:39.567Z,2.90
2019-04-27T08:27:26.823Z,5.33
2019-04-27T08:30:12.932Z,5.60
2019-04-27T08:32:44.300Z,2.83
2019-04-27T08:35:13.320Z,2.60
2019-04-27T08:37:42.998Z,2.30
2019-04-27T08:40:12.072Z,2.37
2019-04-27T08:42:41.145Z,5.10
2019-04-27T08:45:10.370Z,2.47
2019-04-27T08:47:41.724Z,2.30
2019-04-27T08:50:10.435Z,4.57
2019-04-27T08:52:41.936Z,2.47
2019-04-27T08:55:10.618Z,2.70
2019-04-27T08:57:39.738Z,9.60
2019-04-27T09:00:09.444Z,2.17
2019-04-27T09:02:44.541Z,1.90
2019-04-27T09:05:09.750Z,2.27
2019-04-27T09:07:56.425Z,2.40
2019-04-27T09:10:46.118Z,2.57
2019-04-27T09:13:24.295Z,3.20
2019-04-27T09:16:21.379Z,2.37
2019-04-27T09:18:52.133Z,3.20
2019-04-27T09:21:21.232Z,2.90
2019-04-27T09:23:50.251Z,2.13
2019-04-27T09:26:19.458Z,2.30
2019-04-27T09:28:49.278Z,2.40
2019-04-27T09:31:19.638Z,2.00
2019-04-27T09:33:49.059Z,1.90
2019-04-27T09:36:18.127Z,4.30
2019-04-27T09:38:47.242Z,2.33
2019-04-27T09:41:16.997Z,1.80
2019-04-27T09:43:46.638Z,1.87
2019-04-27T09:46:15.847Z,1.87
2019-04-27T09:48:46.544Z,1.90
2019-04-27T09:51:16.240Z,1.60
2019-04-27T09:53:45.889Z,1.60
2019-04-27T09:56:16.470Z,1.57
2019-04-27T09:58:47.154Z,1.77
2019-04-27T10:01:18.001Z,2.00
2019-04-27T10:03:47.185Z,1.40
2019-04-27T10:06:16.381Z,1.90
2019-04-27T10:08:45.463Z,1.30
2019-04-27T10:11:16.246Z,1.30
2019-04-27T10:13:46.539Z,1.17
2019-04-27T10:16:15.589Z,1.27
2019-04-27T10:18:45.836Z,1.27
2019-04-27T10:21:16.289Z,1.00
2019-04-27T10:23:46.996Z,1.37
2019-04-27T10:26:16.860Z,1.27
2019-04-27T10:28:47.416Z,1.27
2019-04-27T10:31:17.175Z,1.00
2019-04-27T10:33:46.195Z,1.00
2019-04-27T10:36:17.173Z,1.00
2019-04-27T10:38:47.268Z,1.00
2019-04-27T10:41:16.395Z,1.00
2019-04-27T10:43:45.490Z,1.00
2019-04-27T10:46:15.650Z,0.90
2019-04-27T10:48:45.686Z,0.73
2019-04-27T10:51:16.054Z,0.87
2019-04-27T10:53:45.709Z,0.97
2019-04-27T10:56:14.703Z,2.17
2019-04-27T10:58:45.637Z,1.20
2019-04-27T11:01:15.609Z,1.70
2019-04-27T11:04:01.109Z,1.83
2019-04-27T11:06:38.538Z,2.47
2019-04-27T11:09:09.828Z,2.93
2019-04-27T11:11:38.941Z,3.90
2019-04-27T11:14:08.034Z,7.90
2019-04-27T11:16:37.739Z,3.30
2019-04-27T11:19:07.038Z,2.10
2019-04-27T11:21:36.025Z,3.83
2019-04-27T11:24:05.123Z,1.80
2019-04-27T11:26:34.173Z,2.07
2019-04-27T11:29:03.284Z,4.13
2019-04-27T11:31:32.391Z,2.03
2019-04-27T11:34:01.425Z,1.97
2019-04-27T11:36:49.331Z,3.83
2019-04-27T11:39:21.199Z,6.63
2019-04-27T11:41:50.365Z,3.20
2019-04-27T11:44:19.591Z,1.70
2019-04-27T11:46:48.608Z,1.60
2019-04-27T11:49:17.697Z,1.50
2019-04-27T11:51:46.748Z,1.70
2019-04-27T11:54:15.830Z,1.60
2019-04-27T11:56:44.909Z,0.80
2019-04-27T11:59:13.926Z,1.00
2019-04-27T12:01:42.956Z,0.90
2019-04-27T12:04:12.118Z,1.03
2019-04-27T12:06:41.230Z,1.40
2019-04-27T12:09:10.300Z,1.20
2019-04-27T12:11:39.471Z,1.00
2019-04-27T12:14:08.508Z,0.90
2019-04-27T12:16:37.608Z,1.30
2019-04-27T12:19:06.669Z,1.30
2019-04-27T12:21:36.643Z,1.40
2019-04-27T12:24:05.805Z,1.17
2019-04-27T12:26:41.227Z,1.17
2019-04-27T12:29:13.459Z,1.17
2019-04-27T12:31:46.426Z,1.30
2019-04-27T12:34:16.192Z,1.30
2019-04-27T12:36:45.935Z,1.27
2019-04-27T12:39:16.512Z,1.60
2019-04-27T12:41:46.171Z,1.20
2019-04-27T12:44:16.032Z,1.40
2019-04-27T12:46:45.177Z,1.43
2019-04-27T12:49:16.015Z,1.50
2019-04-27T12:51:45.671Z,1.27
2019-04-27T12:54:32.274Z,1.40
2019-04-27T12:57:23.628Z,1.20
2019-04-27T13:00:06.581Z,1.73
2019-04-27T13:02:35.798Z,3.90
2019-04-27T13:05:05.713Z,2.10
2019-04-27T13:07:35.991Z,1.40
2019-04-27T13:10:05.775Z,1.70
2019-04-27T13:12:35.786Z,2.17
2019-04-27T13:15:05.670Z,1.70
2019-04-27T13:17:36.502Z,1.83
2019-04-27T13:20:06.373Z,2.60
2019-04-27T13:22:37.098Z,1.50
2019-04-27T13:25:06.905Z,1.40
2019-04-27T13:27:37.658Z,1.33
2019-04-27T13:30:07.996Z,1.60
2019-04-27T13:32:37.586Z,1.10
2019-04-27T13:35:07.573Z,2.17
2019-04-27T13:37:39.825Z,1.07
2019-04-27T13:40:09.908Z,1.00
2019-04-27T13:42:45.182Z,1.70
2019-04-27T13:45:22.572Z,1.23
2019-04-27T13:48:11.792Z,1.00
2019-04-27T13:50:45.656Z,4.40
2019-04-27T13:53:16.788Z,1.80
2019-04-27T13:55:46.721Z,0.90
2019-04-27T13:58:16.464Z,0.90
2019-04-27T14:00:45.523Z,1.03
2019-04-27T14:03:16.711Z,1.23
2019-04-27T14:05:45.504Z,2.40
2019-04-27T14:08:14.608Z,2.97
2019-04-27T14:10:43.722Z,1.00
2019-04-27T14:13:12.972Z,0.90
2019-04-27T14:15:42.131Z,11.17
2019-04-27T14:18:11.298Z,3.50
2019-04-27T14:20:40.431Z,1.20
2019-04-27T14:23:14.677Z,1.07
2019-04-27T14:25:43.680Z,1.30
2019-04-27T14:28:12.786Z,2.97
2019-04-27T14:30:42.001Z,2.00
2019-04-27T14:33:12.719Z,2.13
2019-04-27T14:35:41.777Z,5.70
2019-04-27T14:38:10.898Z,2.97
2019-04-27T14:40:40.005Z,1.67
2019-04-27T14:43:09.133Z,1.33
2019-04-27T14:45:39.749Z,2.03
2019-04-27T14:48:09.352Z,4.53
2019-04-27T14:50:40.432Z,1.93
2019-04-27T14:53:09.173Z,2.53
2019-04-27T14:55:38.777Z,1.60
2019-04-27T14:58:08.756Z,1.83
2019-04-27T15:00:38.547Z,1.33
2019-04-27T15:03:07.663Z,1.40
2019-04-27T15:05:36.708Z,4.30
2019-04-27T15:08:08.729Z,1.40
2019-04-27T15:10:36.735Z,2.57
2019-04-27T15:13:06.508Z,1.37
2019-04-27T15:15:36.673Z,2.53
2019-04-27T15:18:05.822Z,1.83
2019-04-27T15:20:46.436Z,1.37
2019-04-27T15:23:16.784Z,0.93
2019-04-27T15:25:47.164Z,0.90
2019-04-27T15:28:19.134Z,1.07
2019-04-27T15:31:07.161Z,2.20
2019-04-27T15:33:55.186Z,1.07
2019-04-27T15:36:34.475Z,1.07
2019-04-27T15:39:07.893Z,1.00
2019-04-27T15:41:43.211Z,1.10
2019-04-27T15:44:12.572Z,1.20
2019-04-27T15:46:41.660Z,1.40
2019-04-27T15:49:11.734Z,0.90
2019-04-27T15:51:41.053Z,1.13
2019-04-27T15:54:10.115Z,1.47
2019-04-27T15:56:39.400Z,1.80
2019-04-27T15:59:08.777Z,1.30
2019-04-27T16:01:39.571Z,1.63
2019-04-27T16:04:11.181Z,1.23
2019-04-27T16:06:42.838Z,1.80
2019-04-27T16:09:15.865Z,1.13
2019-04-27T16:11:50.059Z,0.90
2019-04-27T16:14:18.807Z,1.37
2019-04-27T16:16:48.846Z,1.23
2019-04-27T16:19:18.393Z,1.20
2019-04-27T16:21:54.236Z,3.57
2019-04-27T16:24:21.121Z,3.13
2019-04-27T16:26:52.310Z,1.03
2019-04-27T16:29:22.966Z,1.50
2019-04-27T16:31:55.015Z,1.30
2019-04-27T16:34:24.117Z,1.10
2019-04-27T16:36:53.236Z,1.27
2019-04-27T16:39:22.552Z,1.57
2019-04-27T16:41:51.710Z,1.20
2019-04-27T16:44:20.771Z,1.80
2019-04-27T16:46:50.105Z,1.60
2019-04-27T16:49:19.205Z,1.40
2019-04-27T16:51:49.164Z,1.00
2019-04-27T16:54:21.416Z,1.47
2019-04-27T16:56:53.052Z,1.30
2019-04-27T16:59:39.881Z,1.30
2019-04-27T17:01:52.434Z,1.67
2019-04-27T17:04:21.524Z,16.60
2019-04-27T17:06:50.615Z,13.27
2019-04-27T17:09:19.873Z,3.13
2019-04-27T17:11:50.066Z,1.43
2019-04-27T17:14:36.421Z,1.47
2019-04-27T17:17:35.509Z,1.93
2019-04-27T17:20:04.804Z,1.60
2019-04-27T17:22:33.872Z,1.90
2019-04-27T17:25:02.923Z,1.83
2019-04-27T17:27:40.549Z,3.40
2019-04-27T17:30:10.635Z,3.30
2019-04-27T17:32:48.820Z,2.10
2019-04-27T17:35:18.354Z,2.20
2019-04-27T17:37:48.890Z,9.13
2019-04-27T17:40:19.058Z,19.87
2019-04-27T17:42:48.275Z,23.33
2019-04-27T17:45:21.391Z,11.77
2019-04-27T17:47:48.293Z,11.23
2019-04-27T17:50:19.988Z,4.20
2019-04-27T17:52:54.604Z,4.83
2019-04-27T17:55:24.453Z,3.40
2019-04-27T17:57:50.620Z,3.67
2019-04-27T18:00:21.084Z,6.20
2019-04-27T18:02:50.169Z,2.83
2019-04-27T18:05:19.208Z,1.70
2019-04-27T18:07:48.660Z,1.83
2019-04-27T18:10:23.203Z,2.40
2019-04-27T18:12:49.977Z,5.03
2019-04-27T18:15:19.300Z,3.73
2019-04-27T18:17:52.167Z,1.57
2019-04-27T18:20:24.845Z,1.93
2019-04-27T18:23:00.078Z,2.10
2019-04-27T18:25:30.795Z,1.80
2019-04-27T18:28:09.950Z,1.70
2019-04-27T18:31:01.099Z,1.87
2019-04-27T18:33:32.574Z,3.87
2019-04-27T18:36:05.443Z,1.73
2019-04-27T18:38:35.413Z,2.63
2019-04-27T18:41:06.942Z,2.13
2019-04-27T18:43:33.707Z,2.40
2019-04-27T18:46:02.688Z,1.70
2019-04-27T18:48:53.937Z,2.27
2019-04-27T18:51:32.998Z,2.67
2019-04-27T18:54:03.622Z,3.10
2019-04-27T18:56:33.477Z,2.00
2019-04-27T18:59:03.504Z,2.50
2019-04-27T19:01:32.621Z,1.73
2019-04-27T19:04:01.646Z,1.73
2019-04-27T19:06:30.696Z,1.80
2019-04-27T19:08:59.757Z,1.70
2019-04-27T19:11:29.138Z,1.50
2019-04-27T19:13:59.031Z,1.37
2019-04-27T19:16:29.183Z,1.90
2019-04-27T19:18:58.534Z,1.40
2019-04-27T19:21:28.848Z,2.00
2019-04-27T19:23:58.482Z,1.30
2019-04-27T19:26:35.683Z,1.30
2019-04-27T19:29:19.985Z,2.07
2019-04-27T19:31:54.542Z,4.17
2019-04-27T19:34:23.545Z,5.20
2019-04-27T19:36:55.670Z,13.57
2019-04-27T19:39:24.797Z,6.47
2019-04-27T19:42:00.206Z,2.93
2019-04-27T19:44:26.053Z,3.93
2019-04-27T19:46:55.183Z,2.30
2019-04-27T19:49:24.245Z,2.30
2019-04-27T19:51:53.363Z,1.50
2019-04-27T19:54:22.448Z,3.50
2019-04-27T19:56:51.525Z,1.80
2019-04-27T19:59:28.329Z,2.20
2019-04-27T20:02:01.189Z,1.80
2019-04-27T20:04:32.049Z,2.30
2019-04-27T20:07:01.113Z,2.00
2019-04-27T20:09:45.519Z,2.03
2019-04-27T20:12:15.834Z,2.73
2019-04-27T20:14:56.864Z,2.10
2019-04-27T20:17:27.011Z,2.83
2019-04-27T20:19:56.118Z,1.97
2019-04-27T20:22:26.482Z,2.23
2019-04-27T20:24:55.638Z,2.00
2019-04-27T20:27:24.784Z,2.87
2019-04-27T20:29:53.934Z,2.70
2019-04-27T20:32:23.000Z,2.77
2019-04-27T20:34:52.027Z,3.10
2019-04-27T20:37:21.181Z,4.50
2019-04-27T20:39:51.503Z,3.50
2019-04-27T20:42:21.292Z,3.60
2019-04-27T20:44:51.572Z,3.40
2019-04-27T20:47:21.172Z,2.77
2019-04-27T20:49:50.354Z,2.73
2019-04-27T20:52:30.775Z,2.53
2019-04-27T20:55:01.496Z,2.97
2019-04-27T20:57:31.731Z,2.60
2019-04-27T21:00:02.010Z,3.97
2019-04-27T21:02:57.036Z,3.47
2019-04-27T21:05:40.984Z,3.10
2019-04-27T21:08:11.707Z,3.30
2019-04-27T21:10:41.376Z,3.10
2019-04-27T21:13:11.198Z,2.93
2019-04-27T21:15:41.882Z,3.03
2019-04-27T21:18:12.137Z,3.03
2019-04-27T21:20:42.371Z,3.73
2019-04-27T21:23:12.163Z,3.40
2019-04-27T21:25:42.052Z,3.10
2019-04-27T21:28:16.654Z,3.47
2019-04-27T21:30:44.054Z,4.17
2019-04-27T21:33:15.781Z,4.40
2019-04-27T21:35:48.040Z,4.77
2019-04-27T21:38:17.164Z,3.00
2019-04-27T21:40:47.793Z,4.87
2019-04-27T21:43:21.646Z,5.60
2019-04-27T21:45:51.128Z,5.03
2019-04-27T21:48:21.218Z,5.10
2019-04-27T21:50:52.044Z,3.77
2019-04-27T21:53:55.681Z,3.83
2019-04-27T21:56:24.999Z,3.97
2019-04-27T21:58:54.155Z,4.27
2019-04-27T22:01:31.952Z,4.20
2019-04-27T22:04:01.510Z,4.07
2019-04-27T22:06:30.542Z,3.93
2019-04-27T22:09:01.345Z,3.70
2019-04-27T22:11:31.897Z,2.73
2019-04-27T22:14:05.859Z,2.47
2019-04-27T22:16:34.330Z,2.50
2019-04-27T22:19:03.552Z,3.03
2019-04-27T22:21:32.599Z,2.30
2019-04-27T22:24:17.621Z,3.37
2019-04-27T22:26:46.722Z,2.00
2019-04-27T22:29:15.757Z,2.23
2019-04-27T22:31:44.795Z,1.97
2019-04-27T22:34:15.798Z,1.93
2019-04-27T22:36:44.831Z,1.80
2019-04-27T22:39:38.777Z,2.00
2019-04-27T22:42:32.673Z,2.00
2019-04-27T22:45:09.509Z,1.73
2019-04-27T22:47:38.638Z,1.87
2019-04-27T22:50:08.138Z,1.73
2019-04-27T22:52:37.367Z,1.83
2019-04-27T22:55:06.645Z,2.00
2019-04-27T22:57:41.991Z,2.40
2019-04-27T23:00:28.484Z,2.00
2019-04-27T23:03:02.315Z,1.77
2019-04-27T23:05:32.026Z,2.07
2019-04-27T23:08:01.885Z,2.07
2019-04-27T23:10:32.547Z,2.20
2019-04-27T23:13:02.732Z,2.17
2019-04-27T23:15:37.957Z,2.90
2019-04-27T23:18:07.003Z,3.37
2019-04-27T23:20:36.305Z,2.67
2019-04-27T23:23:05.359Z,2.93
2019-04-27T23:25:34.428Z,2.23
2019-04-27T23:28:04.464Z,2.10
2019-04-27T23:30:41.771Z,2.57
2019-04-27T23:33:11.991Z,2.13
2019-04-27T23:35:41.491Z,2.70
2019-04-27T23:38:17.510Z,2.20
2019-04-27T23:40:41.812Z,2.87
2019-04-27T23:43:11.574Z,2.30
2019-04-27T23:45:42.014Z,2.60
2019-04-27T23:48:12.399Z,2.50
2019-04-27T23:50:44.840Z,2.63
2019-04-27T23:53:22.708Z,2.60
2019-04-27T23:55:52.971Z,2.80
2019-04-27T23:58:21.972Z,2.37
